createdAt,value
2018-02-09T00:01:43.957Z,118.72
2018-02-09T00:04:11.932Z,120.20
2018-02-09T00:06:39.603Z,140.98
2018-02-09T00:09:07.177Z,143.55
2018-02-09T00:11:35.028Z,154.00
2018-02-09T00:14:02.570Z,155.07
2018-02-09T00:16:30.121Z,216.52
2018-02-09T00:18:57.669Z,181.40
2018-02-09T00:21:25.195Z,225.35
2018-02-09T00:23:52.754Z,182.55
2018-02-09T00:26:20.277Z,197.27
2018-02-09T00:28:48.026Z,193.05
2018-02-09T00:31:15.544Z,137.18
2018-02-09T00:33:43.061Z,155.07
2018-02-09T00:36:10.610Z,206.32
2018-02-09T00:38:38.129Z,163.25
2018-02-09T00:41:05.825Z,135.10
2018-02-09T00:43:33.350Z,145.57
2018-02-09T00:46:00.885Z,176.57
2018-02-09T00:48:28.433Z,177.55
2018-02-09T00:50:55.957Z,146.35
2018-02-09T00:53:23.722Z,126.45
2018-02-09T00:55:51.249Z,136.75
2018-02-09T00:58:18.781Z,130.75
2018-02-09T01:00:46.335Z,145.45
2018-02-09T01:03:13.850Z,133.30
2018-02-09T01:05:41.520Z,130.52
2018-02-09T01:08:09.044Z,149.87
2018-02-09T01:10:36.610Z,143.25
2018-02-09T01:13:04.171Z,139.88
2018-02-09T01:15:31.697Z,150.62
2018-02-09T01:17:59.842Z,130.98
2018-02-09T01:20:27.382Z,134.85
2018-02-09T01:22:54.921Z,146.07
2018-02-09T01:25:22.506Z,132.30
2018-02-09T01:27:50.029Z,141.68
2018-02-09T01:30:17.603Z,145.48
2018-02-09T01:32:45.133Z,128.43
2018-02-09T01:35:12.659Z,149.70
2018-02-09T01:37:40.222Z,144.57
2018-02-09T01:40:07.753Z,146.15
2018-02-09T01:42:35.402Z,140.52
2018-02-09T01:45:02.940Z,131.27
2018-02-09T01:47:30.470Z,141.48
2018-02-09T01:50:09.905Z,131.32
2018-02-09T01:52:37.490Z,161.02
2018-02-09T01:55:05.189Z,127.40
2018-02-09T01:57:32.726Z,149.87
2018-02-09T02:00:00.254Z,133.85
2018-02-09T02:02:27.805Z,140.95
2018-02-09T02:04:55.333Z,148.10
2018-02-09T02:07:23.102Z,138.18
2018-02-09T02:09:50.624Z,131.52
2018-02-09T02:12:18.146Z,131.43
2018-02-09T02:14:46.089Z,141.93
2018-02-09T02:17:13.611Z,146.35
2018-02-09T02:19:41.170Z,140.62
2018-02-09T02:22:08.690Z,138.57
2018-02-09T02:24:36.214Z,153.43
2018-02-09T02:27:03.773Z,157.18
2018-02-09T02:29:31.293Z,149.35
2018-02-09T02:31:59.006Z,135.65
2018-02-09T02:34:26.531Z,149.77
2018-02-09T02:36:54.058Z,156.48
2018-02-09T02:39:21.604Z,133.77
2018-02-09T02:41:49.135Z,140.98
2018-02-09T02:44:16.897Z,138.52
2018-02-09T02:46:44.424Z,140.25
2018-02-09T02:49:11.963Z,136.50
2018-02-09T02:51:39.514Z,139.95
2018-02-09T02:54:07.041Z,129.52
2018-02-09T02:56:34.741Z,135.20
2018-02-09T02:59:02.267Z,145.18
2018-02-09T03:01:29.785Z,136.07
2018-02-09T03:03:57.385Z,133.45
2018-02-09T03:06:24.901Z,124.62
2018-02-09T03:08:52.802Z,128.15
2018-02-09T03:11:20.334Z,121.37
2018-02-09T03:13:47.861Z,133.85
2018-02-09T03:16:15.406Z,137.75
2018-02-09T03:18:42.930Z,143.55
2018-02-09T03:21:10.785Z,139.68
2018-02-09T03:23:38.330Z,121.20
2018-02-09T03:26:05.845Z,132.75
2018-02-09T03:28:33.405Z,141.43
2018-02-09T03:31:00.936Z,141.30
2018-02-09T03:33:28.649Z,125.50
2018-02-09T03:35:56.173Z,142.37
2018-02-09T03:38:23.709Z,152.98
2018-02-09T03:40:51.266Z,128.10
2018-02-09T03:43:18.792Z,122.97
2018-02-09T03:45:46.590Z,166.00
2018-02-09T03:48:14.118Z,167.32
2018-02-09T03:50:41.643Z,132.48
2018-02-09T03:53:09.197Z,147.60
2018-02-09T03:55:36.735Z,128.15
2018-02-09T03:58:04.438Z,148.13
2018-02-09T04:00:33.310Z,142.75
2018-02-09T04:03:01.044Z,135.85
2018-02-09T04:05:28.590Z,137.00
2018-02-09T04:07:56.106Z,134.85
2018-02-09T04:10:23.817Z,148.93
2018-02-09T04:12:51.345Z,140.98
2018-02-09T04:15:19.185Z,119.65
2018-02-09T04:17:46.778Z,123.93
2018-02-09T04:20:14.303Z,124.45
2018-02-09T04:22:42.031Z,123.53
2018-02-09T04:25:09.541Z,134.73
2018-02-09T04:27:37.069Z,127.53
2018-02-09T04:30:04.622Z,129.15
2018-02-09T04:32:32.143Z,143.85
2018-02-09T04:34:59.925Z,141.10
2018-02-09T04:37:27.454Z,140.20
2018-02-09T04:39:54.979Z,139.30
2018-02-09T04:42:22.534Z,145.12
2018-02-09T04:44:50.057Z,140.48
2018-02-09T04:47:17.717Z,130.00
2018-02-09T04:49:45.243Z,132.48
2018-02-09T04:52:12.762Z,138.55
2018-02-09T04:54:40.311Z,131.07
2018-02-09T04:57:07.842Z,128.90
2018-02-09T04:59:35.717Z,116.37
2018-02-09T05:02:03.298Z,122.30
2018-02-09T05:04:30.820Z,115.72
2018-02-09T05:06:58.367Z,121.40
2018-02-09T05:09:25.891Z,112.70
2018-02-09T05:11:53.622Z,139.95
2018-02-09T05:14:21.149Z,116.20
2018-02-09T05:16:48.673Z,127.32
2018-02-09T05:19:16.229Z,132.00
2018-02-09T05:21:43.756Z,115.03
2018-02-09T05:24:11.519Z,131.02
2018-02-09T05:26:39.043Z,124.70
2018-02-09T05:29:06.574Z,132.68
2018-02-09T05:31:34.126Z,130.02
2018-02-09T05:34:01.653Z,120.78
2018-02-09T05:36:29.422Z,130.70
2018-02-09T05:38:56.942Z,132.05
2018-02-09T05:41:24.466Z,130.73
2018-02-09T05:43:52.027Z,116.85
2018-02-09T05:46:19.559Z,134.43
2018-02-09T05:48:47.215Z,140.00
2018-02-09T05:51:14.743Z,119.28
2018-02-09T05:53:42.267Z,120.28
2018-02-09T05:56:09.826Z,127.82
2018-02-09T05:58:37.365Z,130.98
2018-02-09T06:01:05.108Z,136.25
2018-02-09T06:03:32.633Z,136.40
2018-02-09T06:06:00.162Z,123.43
2018-02-09T06:08:27.710Z,113.88
2018-02-09T06:10:55.234Z,135.48
2018-02-09T06:13:22.796Z,134.48
2018-02-09T06:15:50.322Z,116.95
2018-02-09T06:18:17.846Z,121.40
2018-02-09T06:20:45.394Z,118.28
2018-02-09T06:23:12.918Z,108.28
2018-02-09T06:25:40.641Z,110.82
2018-02-09T06:28:08.165Z,100.82
2018-02-09T06:30:35.727Z,116.62
2018-02-09T06:33:03.273Z,127.95
2018-02-09T06:35:30.792Z,125.12
2018-02-09T06:37:58.665Z,136.73
2018-02-09T06:40:26.181Z,113.53
2018-02-09T06:42:53.701Z,115.88
2018-02-09T06:45:21.254Z,133.60
2018-02-09T06:47:48.808Z,118.60
2018-02-09T06:50:16.704Z,125.25
2018-02-09T06:52:44.229Z,133.23
2018-02-09T06:55:11.746Z,127.90
2018-02-09T06:57:44.849Z,135.68
2018-02-09T07:00:12.405Z,125.20
2018-02-09T07:02:40.133Z,133.68
2018-02-09T07:05:07.658Z,117.32
2018-02-09T07:07:35.844Z,113.65
2018-02-09T07:10:03.399Z,115.43
2018-02-09T07:12:32.436Z,125.28
2018-02-09T07:15:00.182Z,123.50
2018-02-09T07:17:27.709Z,104.87
2018-02-09T07:19:55.237Z,139.30
2018-02-09T07:22:22.787Z,136.00
2018-02-09T07:24:50.323Z,119.65
2018-02-09T07:27:17.881Z,112.57
2018-02-09T07:29:45.413Z,119.60
2018-02-09T07:32:12.944Z,126.53
2018-02-09T07:34:40.499Z,108.05
2018-02-09T07:37:08.090Z,119.72
2018-02-09T07:39:35.769Z,110.05
2018-02-09T07:42:03.327Z,119.13
2018-02-09T07:44:30.854Z,116.50
2018-02-09T07:46:58.405Z,126.43
2018-02-09T07:49:25.934Z,109.45
2018-02-09T07:51:53.664Z,114.47
2018-02-09T07:54:21.191Z,118.43
2018-02-09T07:56:48.705Z,139.57
2018-02-09T07:59:16.258Z,143.27
2018-02-09T08:01:43.788Z,122.60
2018-02-09T08:04:11.569Z,113.55
2018-02-09T08:06:39.096Z,108.53
2018-02-09T08:09:07.526Z,105.03
2018-02-09T08:11:35.073Z,111.40
2018-02-09T08:14:02.606Z,114.25
2018-02-09T08:16:30.161Z,108.70
2018-02-09T08:18:57.690Z,110.90
2018-02-09T08:21:25.206Z,121.43
2018-02-09T08:23:52.982Z,107.75
2018-02-09T08:26:20.509Z,105.70
2018-02-09T08:28:48.086Z,108.15
2018-02-09T08:31:15.610Z,121.25
2018-02-09T08:33:43.126Z,108.12
2018-02-09T08:36:10.686Z,107.97
2018-02-09T08:38:38.210Z,113.78
2018-02-09T08:41:05.986Z,122.85
2018-02-09T08:43:33.530Z,110.55
2018-02-09T08:46:01.063Z,110.93
2018-02-09T08:48:28.615Z,108.87
2018-02-09T08:50:56.155Z,103.70
2018-02-09T08:53:23.878Z,114.35
2018-02-09T08:55:51.409Z,113.90
2018-02-09T08:58:18.940Z,112.55
2018-02-09T09:00:46.503Z,101.10
2018-02-09T09:03:14.049Z,100.82
2018-02-09T09:05:41.808Z,103.80
2018-02-09T09:08:09.333Z,118.62
2018-02-09T09:10:36.866Z,108.60
2018-02-09T09:13:04.439Z,106.03
2018-02-09T09:15:31.954Z,111.80
2018-02-09T09:17:59.672Z,118.47
2018-02-09T09:20:27.334Z,94.50
2018-02-09T09:22:54.860Z,111.72
2018-02-09T09:25:22.404Z,115.32
2018-02-09T09:27:49.931Z,98.68
2018-02-09T09:30:17.678Z,108.82
2018-02-09T09:32:45.201Z,106.28
2018-02-09T09:35:12.732Z,112.12
2018-02-09T09:37:40.273Z,98.22
2018-02-09T09:40:07.785Z,98.85
2018-02-09T09:42:35.577Z,100.40
2018-02-09T09:45:03.123Z,110.90
2018-02-09T09:47:30.647Z,104.57
2018-02-09T09:49:58.214Z,120.07
2018-02-09T09:52:25.745Z,114.93
2018-02-09T09:54:53.909Z,114.85
2018-02-09T09:57:21.431Z,98.20
2018-02-09T09:59:48.965Z,98.95
2018-02-09T10:02:28.419Z,102.65
2018-02-09T10:04:55.946Z,111.03
2018-02-09T10:07:23.689Z,106.45
2018-02-09T10:09:51.206Z,94.15
2018-02-09T10:12:18.733Z,108.37
2018-02-09T10:14:46.289Z,101.32
2018-02-09T10:17:13.814Z,94.25
2018-02-09T10:19:41.566Z,104.55
2018-02-09T10:22:09.096Z,100.30
2018-02-09T10:24:36.621Z,89.18
2018-02-09T10:27:04.178Z,90.43
2018-02-09T10:29:31.697Z,74.53
2018-02-09T10:31:59.399Z,77.70
2018-02-09T10:34:26.918Z,79.30
2018-02-09T10:36:54.434Z,79.03
2018-02-09T10:39:22.074Z,91.97
2018-02-09T10:41:49.714Z,74.55
2018-02-09T10:44:17.558Z,85.38
2018-02-09T10:46:45.090Z,78.15
2018-02-09T10:49:12.627Z,70.35
2018-02-09T10:51:40.182Z,81.47
2018-02-09T10:54:07.710Z,84.47
2018-02-09T10:56:35.894Z,74.12
2018-02-09T10:59:03.438Z,70.55
2018-02-09T11:01:37.136Z,75.40
2018-02-09T11:04:05.021Z,79.37
2018-02-09T11:06:32.543Z,73.62
2018-02-09T11:09:00.106Z,87.10
2018-02-09T11:11:27.642Z,82.30
2018-02-09T11:13:55.185Z,90.47
2018-02-09T11:16:22.711Z,85.80
2018-02-09T11:18:50.483Z,78.25
2018-02-09T11:21:18.550Z,89.13
2018-02-09T11:23:46.066Z,79.12
2018-02-09T11:26:13.610Z,81.03
2018-02-09T11:28:41.131Z,80.40
2018-02-09T11:31:08.690Z,71.60
2018-02-09T11:33:36.228Z,81.12
2018-02-09T11:36:03.915Z,82.47
2018-02-09T11:38:31.465Z,83.53
2018-02-09T11:40:59.406Z,70.07
2018-02-09T11:43:27.089Z,74.93
2018-02-09T11:45:54.610Z,84.72
2018-02-09T11:48:22.134Z,83.80
2018-02-09T11:50:49.686Z,87.30
2018-02-09T11:53:17.290Z,82.60
2018-02-09T11:55:44.875Z,86.18
2018-02-09T11:58:12.552Z,79.80
2018-02-09T12:00:40.266Z,88.53
2018-02-09T12:03:09.003Z,88.43
2018-02-09T12:05:36.741Z,88.57
2018-02-09T12:08:04.627Z,74.15
2018-02-09T12:10:32.397Z,78.95
2018-02-09T12:12:59.966Z,75.90
2018-02-09T12:15:27.502Z,78.28
2018-02-09T12:17:55.026Z,80.35
2018-02-09T12:20:22.941Z,84.03
2018-02-09T12:22:50.602Z,75.85
2018-02-09T12:25:18.136Z,71.22
2018-02-09T12:27:45.910Z,78.10
2018-02-09T12:30:14.511Z,68.25
2018-02-09T12:32:42.269Z,87.12
2018-02-09T12:35:09.813Z,85.38
2018-02-09T12:37:37.366Z,83.07
2018-02-09T12:40:05.220Z,86.00
2018-02-09T12:42:33.951Z,78.22
2018-02-09T12:45:02.103Z,80.12
2018-02-09T12:47:29.803Z,79.40
2018-02-09T12:49:58.147Z,77.03
2018-02-09T12:52:26.125Z,75.82
2018-02-09T12:54:53.954Z,76.25
2018-02-09T12:57:22.066Z,81.65
2018-02-09T12:59:51.113Z,64.37
2018-02-09T13:02:19.230Z,76.70
2018-02-09T13:04:47.710Z,66.30
2018-02-09T13:07:15.679Z,67.60
2018-02-09T13:09:43.835Z,75.95
2018-02-09T13:12:24.929Z,55.45
2018-02-09T13:14:53.333Z,55.92
2018-02-09T13:17:21.381Z,50.30
2018-02-09T13:19:50.123Z,57.75
2018-02-09T13:22:29.709Z,53.72
2018-02-09T13:24:57.470Z,54.80
2018-02-09T13:27:25.441Z,52.97
2018-02-09T13:29:53.309Z,47.75
2018-02-09T13:32:33.653Z,55.65
2018-02-09T13:35:01.520Z,58.22
2018-02-09T13:37:35.679Z,57.45
2018-02-09T13:40:03.803Z,55.90
2018-02-09T13:42:31.991Z,57.45
2018-02-09T13:44:59.965Z,58.05
2018-02-09T13:47:27.760Z,64.32
2018-02-09T13:49:55.925Z,83.95
2018-02-09T13:52:23.781Z,94.80
2018-02-09T13:54:51.666Z,96.55
2018-02-09T13:57:19.571Z,95.38
2018-02-09T13:59:47.364Z,81.90
2018-02-09T14:02:16.254Z,96.20
2018-02-09T14:04:44.429Z,91.93
2018-02-09T14:07:13.528Z,92.07
2018-02-09T14:09:41.393Z,83.03
2018-02-09T14:12:09.845Z,92.32
2018-02-09T14:14:37.942Z,90.05
2018-02-09T14:17:06.234Z,90.28
2018-02-09T14:19:34.141Z,86.47
2018-02-09T14:22:02.060Z,95.45
2018-02-09T14:24:30.284Z,90.47
2018-02-09T14:26:58.672Z,98.35
2018-02-09T14:29:27.134Z,84.55
2018-02-09T14:31:55.157Z,101.95
2018-02-09T14:34:23.024Z,98.87
2018-02-09T14:36:50.788Z,83.80
2018-02-09T14:39:18.788Z,92.45
2018-02-09T14:41:46.727Z,111.78
2018-02-09T14:44:14.907Z,97.32
2018-02-09T14:46:42.663Z,91.03
2018-02-09T14:49:11.045Z,103.28
2018-02-09T14:51:39.216Z,98.55
2018-02-09T14:54:07.053Z,96.55
2018-02-09T14:56:34.848Z,104.72
2018-02-09T14:59:02.689Z,97.62
2018-02-09T15:01:30.681Z,105.90
2018-02-09T15:03:59.468Z,99.53
2018-02-09T15:06:27.438Z,93.43
2018-02-09T15:08:55.347Z,102.35
2018-02-09T15:11:23.406Z,93.57
2018-02-09T15:13:51.652Z,103.47
2018-02-09T15:16:19.603Z,102.80
2018-02-09T15:18:47.487Z,107.20
2018-02-09T15:21:15.411Z,79.70
2018-02-09T15:23:43.322Z,86.37
2018-02-09T15:26:11.471Z,99.32
2018-02-09T15:28:39.404Z,103.90
2018-02-09T15:31:07.307Z,102.43
2018-02-09T15:33:35.271Z,93.05
2018-02-09T15:36:03.180Z,93.65
2018-02-09T15:38:31.402Z,96.10
2018-02-09T15:40:59.269Z,105.35
2018-02-09T15:43:27.277Z,105.18
2018-02-09T15:45:56.782Z,95.47
2018-02-09T15:48:24.752Z,95.65
2018-02-09T15:50:52.935Z,83.82
2018-02-09T15:53:20.893Z,87.90
2018-02-09T15:55:49.048Z,89.05
2018-02-09T15:58:17.240Z,84.95
2018-02-09T16:00:45.205Z,93.07
2018-02-09T16:03:13.280Z,98.15
2018-02-09T16:05:41.153Z,96.28
2018-02-09T16:08:09.116Z,90.62
2018-02-09T16:10:38.210Z,125.50
2018-02-09T16:13:05.975Z,122.93
2018-02-09T16:15:34.923Z,85.55
2018-02-09T16:18:02.732Z,102.12
2018-02-09T16:20:30.598Z,100.93
2018-02-09T16:22:58.674Z,101.30
2018-02-09T16:25:26.522Z,88.35
2018-02-09T16:27:54.812Z,104.38
2018-02-09T16:30:22.753Z,90.78
2018-02-09T16:32:50.648Z,91.20
2018-02-09T16:35:18.371Z,91.65
2018-02-09T16:37:46.227Z,85.93
2018-02-09T16:40:14.453Z,84.57
2018-02-09T16:42:42.319Z,88.93
2018-02-09T16:45:11.216Z,80.12
2018-02-09T16:47:39.312Z,75.07
2018-02-09T16:50:07.372Z,85.47
2018-02-09T16:52:35.832Z,80.97
2018-02-09T16:55:03.665Z,82.53
2018-02-09T16:57:31.566Z,79.85
2018-02-09T16:59:59.431Z,91.60
2018-02-09T17:02:27.297Z,86.75
2018-02-09T17:04:56.112Z,78.45
2018-02-09T17:07:24.975Z,87.55
2018-02-09T17:09:52.796Z,95.30
2018-02-09T17:12:21.529Z,87.75
2018-02-09T17:14:49.804Z,106.57
2018-02-09T17:17:18.181Z,90.80
2018-02-09T17:19:46.048Z,91.00
2018-02-09T17:22:15.001Z,86.07
2018-02-09T17:24:42.908Z,88.80
2018-02-09T17:27:10.777Z,91.10
2018-02-09T17:29:39.053Z,99.07
2018-02-09T17:32:07.193Z,104.38
2018-02-09T17:34:35.585Z,101.40
2018-02-09T17:37:03.982Z,93.65
2018-02-09T17:39:32.362Z,97.25
2018-02-09T17:42:00.434Z,89.10
2018-02-09T17:44:28.399Z,93.60
2018-02-09T17:46:56.270Z,114.78
2018-02-09T17:49:24.137Z,101.47
2018-02-09T17:51:52.007Z,112.72
2018-02-09T17:54:20.143Z,109.47
2018-02-09T17:56:48.012Z,106.57
2018-02-09T17:59:16.801Z,113.15
2018-02-09T18:01:44.695Z,115.25
2018-02-09T18:04:12.560Z,107.40
2018-02-09T18:06:40.316Z,102.07
2018-02-09T18:09:08.294Z,97.75
2018-02-09T18:11:36.065Z,98.60
2018-02-09T18:14:03.926Z,94.55
2018-02-09T18:16:31.800Z,90.72
2018-02-09T18:18:59.664Z,90.38
2018-02-09T18:21:27.614Z,106.97
2018-02-09T18:23:55.495Z,81.65
2018-02-09T18:26:23.466Z,104.20
2018-02-09T18:28:51.269Z,96.90
2018-02-09T18:31:19.194Z,100.25
2018-02-09T18:33:47.571Z,117.10
2018-02-09T18:36:15.425Z,109.63
2018-02-09T18:38:43.406Z,99.37
2018-02-09T18:41:11.274Z,110.63
2018-02-09T18:43:39.959Z,111.97
2018-02-09T18:46:08.338Z,108.15
2018-02-09T18:48:37.740Z,113.35
2018-02-09T18:51:06.016Z,106.00
2018-02-09T18:53:33.843Z,107.53
2018-02-09T18:56:01.749Z,111.15
2018-02-09T18:58:29.980Z,106.43
2018-02-09T19:00:58.164Z,124.35
2018-02-09T19:03:27.499Z,109.22
2018-02-09T19:05:55.570Z,100.30
2018-02-09T19:08:24.358Z,105.47
2018-02-09T19:10:52.376Z,110.43
2018-02-09T19:13:21.524Z,141.07
2018-02-09T19:15:49.493Z,182.23
2018-02-09T19:18:17.758Z,142.20
2018-02-09T19:20:45.701Z,115.55
2018-02-09T19:23:13.617Z,107.60
2018-02-09T19:25:41.470Z,115.68
2018-02-09T19:28:10.181Z,119.72
2018-02-09T19:30:38.127Z,124.93
2018-02-09T19:33:06.260Z,113.07
2018-02-09T19:35:34.185Z,126.90
2018-02-09T19:38:02.042Z,124.18
2018-02-09T19:40:29.898Z,105.50
2018-02-09T19:42:57.766Z,115.53
2018-02-09T19:45:26.043Z,106.10
2018-02-09T19:47:54.567Z,121.13
2018-02-09T19:50:22.425Z,117.90
2018-02-09T19:52:51.893Z,110.60
2018-02-09T19:55:21.829Z,112.80
2018-02-09T19:57:49.941Z,118.30
2018-02-09T20:00:17.870Z,118.43
2018-02-09T20:02:45.632Z,103.38
2018-02-09T20:05:13.581Z,116.07
2018-02-09T20:07:41.450Z,113.68
2018-02-09T20:10:09.725Z,123.43
2018-02-09T20:12:38.614Z,113.45
2018-02-09T20:15:06.483Z,105.75
2018-02-09T20:17:35.741Z,122.80
2018-02-09T20:20:03.563Z,110.63
2018-02-09T20:22:31.766Z,112.78
2018-02-09T20:24:59.631Z,98.87
2018-02-09T20:27:27.452Z,105.95
2018-02-09T20:29:55.490Z,104.63
2018-02-09T20:32:23.857Z,103.25
2018-02-09T20:35:04.046Z,114.95
2018-02-09T20:37:31.924Z,110.32
2018-02-09T20:39:59.791Z,121.37
2018-02-09T20:42:27.760Z,104.85
2018-02-09T20:44:55.830Z,118.75
2018-02-09T20:47:24.104Z,112.57
2018-02-09T20:49:51.948Z,116.10
2018-02-09T20:52:19.838Z,107.10
2018-02-09T20:54:47.807Z,113.15
2018-02-09T20:57:15.878Z,101.57
2018-02-09T20:59:44.367Z,116.30
2018-02-09T21:02:12.352Z,103.28
2018-02-09T21:04:40.501Z,102.05
2018-02-09T21:07:08.838Z,120.68
2018-02-09T21:09:37.157Z,102.40
2018-02-09T21:12:05.296Z,111.20
2018-02-09T21:14:33.197Z,120.78
2018-02-09T21:17:01.067Z,110.68
2018-02-09T21:19:29.032Z,117.87
2018-02-09T21:21:57.003Z,107.50
2018-02-09T21:24:25.912Z,123.62
2018-02-09T21:26:54.169Z,110.47
2018-02-09T21:29:22.034Z,149.68
2018-02-09T21:31:50.003Z,108.78
2018-02-09T21:34:17.869Z,114.20
2018-02-09T21:36:45.851Z,118.57
2018-02-09T21:39:14.014Z,93.90
2018-02-09T21:41:42.088Z,113.30
2018-02-09T21:44:10.154Z,119.70
2018-02-09T21:46:38.942Z,104.03
2018-02-09T21:49:07.298Z,106.60
2018-02-09T21:51:35.187Z,120.85
2018-02-09T21:54:02.985Z,102.03
2018-02-09T21:56:31.023Z,103.93
2018-02-09T21:58:58.889Z,103.12
2018-02-09T22:01:27.168Z,119.35
2018-02-09T22:03:55.031Z,98.15
2018-02-09T22:06:25.368Z,112.07
2018-02-09T22:08:53.355Z,120.82
2018-02-09T22:11:22.112Z,104.55
2018-02-09T22:13:50.160Z,105.60
2018-02-09T22:16:18.243Z,129.30
2018-02-09T22:18:47.248Z,106.82
2018-02-09T22:21:15.114Z,117.75
2018-02-09T22:23:43.186Z,127.87
2018-02-09T22:26:11.361Z,119.03
2018-02-09T22:28:39.126Z,108.93
2018-02-09T22:31:06.785Z,99.50
2018-02-09T22:33:35.170Z,104.10
2018-02-09T22:36:03.031Z,104.82
2018-02-09T22:38:31.001Z,107.55
2018-02-09T22:40:58.864Z,109.70
2018-02-09T22:43:26.731Z,112.35
2018-02-09T22:45:54.602Z,111.70
2018-02-09T22:48:22.467Z,111.35
2018-02-09T22:50:50.535Z,100.68
2018-02-09T22:53:18.402Z,101.15
2018-02-09T22:55:46.245Z,105.87
2018-02-09T22:58:14.875Z,113.75
2018-02-09T23:00:42.604Z,103.25
2018-02-09T23:03:11.405Z,93.28
2018-02-09T23:05:40.254Z,103.72
2018-02-09T23:08:08.062Z,105.87
2018-02-09T23:10:36.655Z,101.28
2018-02-09T23:13:05.021Z,94.50
2018-02-09T23:15:33.091Z,114.82
2018-02-09T23:18:00.958Z,103.30
2018-02-09T23:20:28.704Z,90.30
2018-02-09T23:22:56.691Z,112.45
2018-02-09T23:25:24.354Z,102.03
2018-02-09T23:27:51.927Z,114.32
2018-02-09T23:30:19.868Z,117.03
2018-02-09T23:32:48.331Z,94.70
2018-02-09T23:35:15.992Z,100.07
2018-02-09T23:37:43.737Z,100.28
2018-02-09T23:40:11.357Z,96.07
2018-02-09T23:42:38.890Z,103.40
2018-02-09T23:45:06.571Z,99.30
2018-02-09T23:47:34.126Z,124.82
2018-02-09T23:50:01.775Z,101.62
2018-02-09T23:52:29.386Z,102.40
2018-02-09T23:54:56.914Z,106.68
2018-02-09T23:57:24.761Z,112.12
2018-02-09T23:59:52.331Z,106.37
